createdAt,value
2022-10-03T00:02:05.782Z,98784.53
2022-10-03T00:04:58.677Z,98792.81
2022-10-03T00:07:44.556Z,98795.56
2022-10-03T00:10:30.373Z,98798.75
2022-10-03T00:12:57.869Z,98794.03
2022-10-03T00:15:35.204Z,98790.09
2022-10-03T00:18:11.044Z,98805.03
2022-10-03T00:21:17.616Z,98801.06
2022-10-03T00:24:04.987Z,98790.50
2022-10-03T00:26:38.976Z,98806.28
2022-10-03T00:29:28.526Z,98804.69
2022-10-03T00:32:22.498Z,98809.78
2022-10-03T00:34:50.757Z,98808.59
2022-10-03T00:37:30.936Z,98812.59
2022-10-03T00:40:32.566Z,98817.28
2022-10-03T00:43:21.447Z,98813.00
2022-10-03T00:46:23.167Z,98817.28
2022-10-03T00:49:15.599Z,98815.41
2022-10-03T00:52:02.493Z,98811.06
2022-10-03T00:54:33.095Z,98812.22
2022-10-03T00:57:03.932Z,98817.72
2022-10-03T01:00:01.195Z,98816.94
2022-10-03T01:02:47.227Z,98816.41
2022-10-03T01:05:22.349Z,98807.75
2022-10-03T01:08:04.070Z,98808.75
2022-10-03T01:11:26.047Z,98822.81
2022-10-03T01:14:11.759Z,98825.59
2022-10-03T01:17:14.928Z,98820.38
2022-10-03T01:20:01.105Z,98827.75
2022-10-03T01:22:41.173Z,98822.63
2022-10-03T01:25:23.961Z,98831.59
2022-10-03T01:28:19.146Z,98835.00
2022-10-03T01:30:49.971Z,98836.88
2022-10-03T01:33:37.700Z,98832.53
2022-10-03T01:36:10.901Z,98838.41
2022-10-03T01:39:03.042Z,98846.59
2022-10-03T01:41:38.193Z,98848.16
2022-10-03T01:44:09.121Z,98843.84
2022-10-03T01:46:50.920Z,98845.41
2022-10-03T01:49:27.511Z,98852.78
2022-10-03T01:52:12.338Z,98853.53
2022-10-03T01:54:40.924Z,98856.56
2022-10-03T01:57:22.115Z,98859.69
2022-10-03T01:59:55.740Z,98870.69
2022-10-03T02:02:39.842Z,98869.88
2022-10-03T02:05:10.367Z,98871.03
2022-10-03T02:07:51.233Z,98865.09
2022-10-03T02:10:45.218Z,98859.59
2022-10-03T02:13:24.487Z,98882.75
2022-10-03T02:16:05.755Z,98883.94
2022-10-03T02:18:56.101Z,98895.63
2022-10-03T02:21:28.548Z,98892.53
2022-10-03T02:24:28.493Z,98890.88
2022-10-03T02:27:12.964Z,98890.00
2022-10-03T02:30:05.751Z,98887.59
2022-10-03T02:33:10.960Z,98893.88
2022-10-03T02:35:41.743Z,98890.00
2022-10-03T02:38:18.251Z,98887.25
2022-10-03T02:41:14.094Z,98900.19
2022-10-03T02:44:09.494Z,98900.53
2022-10-03T02:46:46.978Z,98904.88
2022-10-03T02:49:53.703Z,98913.59
2022-10-03T02:52:37.972Z,98916.78
2022-10-03T02:55:28.766Z,98913.66
2022-10-03T02:58:34.419Z,98924.31
2022-10-03T03:01:10.881Z,98920.69
2022-10-03T03:03:58.577Z,98916.78
2022-10-03T03:06:55.286Z,98912.44
2022-10-03T03:10:00.749Z,98920.69
2022-10-03T03:12:52.703Z,98921.56
2022-10-03T03:15:57.236Z,98927.06
2022-10-03T03:18:38.206Z,98937.25
2022-10-03T03:21:08.821Z,98938.50
2022-10-03T03:23:42.455Z,98935.75
2022-10-03T03:26:37.844Z,98953.88
2022-10-03T03:29:07.038Z,98954.16
2022-10-03T03:31:54.695Z,98964.00
2022-10-03T03:34:35.574Z,98965.59
2022-10-03T03:37:16.872Z,98961.69
2022-10-03T03:39:57.796Z,98968.75
2022-10-03T03:42:37.418Z,98970.03
2022-10-03T03:45:29.595Z,98976.25
2022-10-03T03:48:39.848Z,98975.09
2022-10-03T03:51:29.466Z,98971.97
2022-10-03T03:54:05.925Z,98976.66
2022-10-03T03:56:55.927Z,98974.81
2022-10-03T03:59:26.591Z,98978.38
2022-10-03T04:01:59.710Z,98967.78
2022-10-03T04:04:29.353Z,98975.25
2022-10-03T04:07:21.504Z,98979.16
2022-10-03T04:10:01.149Z,98981.13
2022-10-03T04:12:48.740Z,98988.66
2022-10-03T04:15:34.693Z,98978.38
2022-10-03T04:18:35.948Z,98986.16
2022-10-03T04:21:21.911Z,98989.38
2022-10-03T04:24:22.071Z,99002.66
2022-10-03T04:27:23.458Z,98996.47
2022-10-03T04:30:10.048Z,98998.88
2022-10-03T04:32:57.383Z,99003.66
2022-10-03T04:36:12.478Z,99015.47
2022-10-03T04:38:44.472Z,99026.19
2022-10-03T04:41:33.045Z,99021.84
2022-10-03T04:44:12.103Z,99021.16
2022-10-03T04:46:46.931Z,99020.34
2022-10-03T04:49:32.220Z,99026.66
2022-10-03T04:52:33.374Z,99017.22
2022-10-03T04:55:06.870Z,99021.16
2022-10-03T04:57:45.519Z,99027.06
2022-10-03T05:00:31.453Z,99033.75
2022-10-03T05:03:11.923Z,99040.75
2022-10-03T05:05:55.350Z,99043.44
2022-10-03T05:08:41.230Z,99040.34
2022-10-03T05:11:23.231Z,99050.88
2022-10-03T05:14:01.506Z,99055.56
2022-10-03T05:16:41.267Z,99045.03
2022-10-03T05:19:20.992Z,99058.09
2022-10-03T05:22:00.635Z,99056.47
2022-10-03T05:24:35.027Z,99059.22
2022-10-03T05:27:14.670Z,99056.22
2022-10-03T05:29:48.543Z,99064.47
2022-10-03T05:32:38.880Z,99062.44
2022-10-03T05:35:35.234Z,99066.78
2022-10-03T05:38:35.146Z,99069.97
2022-10-03T05:41:05.210Z,99079.47
2022-10-03T05:44:01.180Z,99085.78
2022-10-03T05:47:01.148Z,99095.25
2022-10-03T05:49:46.259Z,99093.75
2022-10-03T05:52:13.783Z,99093.75
2022-10-03T05:55:19.231Z,99093.47
2022-10-03T05:57:46.852Z,99101.03
2022-10-03T06:00:42.088Z,99108.59
2022-10-03T06:03:45.992Z,99100.00
2022-10-03T06:06:28.013Z,99103.63
2022-10-03T06:09:00.939Z,99106.00
2022-10-03T06:11:57.257Z,99109.63
2022-10-03T06:14:43.533Z,99115.59
2022-10-03T06:18:00.542Z,99120.03
2022-10-03T06:20:50.492Z,99120.13
2022-10-03T06:23:48.066Z,99120.56
2022-10-03T06:26:36.269Z,99118.00
2022-10-03T06:29:21.914Z,99128.66
2022-10-03T06:31:52.348Z,99136.72
2022-10-03T06:34:57.414Z,99128.53
2022-10-03T06:37:46.840Z,99133.00
2022-10-03T06:40:26.710Z,99121.34
2022-10-03T06:43:16.402Z,99130.91
2022-10-03T06:46:08.536Z,99127.88
2022-10-03T06:49:13.611Z,99141.47
2022-10-03T06:51:51.723Z,99137.63
2022-10-03T06:54:38.099Z,99144.13
2022-10-03T06:57:12.219Z,99145.06
2022-10-03T07:00:04.624Z,99154.63
2022-10-03T07:02:50.037Z,99155.59
2022-10-03T07:05:42.496Z,99157.28
2022-10-03T07:08:48.002Z,99164.91
2022-10-03T07:11:51.076Z,99165.78
2022-10-03T07:15:06.677Z,99169.47
2022-10-03T07:17:50.764Z,99181.72
2022-10-03T07:20:58.880Z,99177.44
2022-10-03T07:23:44.459Z,99174.41
2022-10-03T07:26:11.895Z,99178.84
2022-10-03T07:29:14.559Z,99182.00
2022-10-03T07:32:10.138Z,99186.00
2022-10-03T07:35:11.869Z,99188.91
2022-10-03T07:38:14.512Z,99179.47
2022-10-03T07:41:21.709Z,99187.13
2022-10-03T07:44:04.909Z,99189.47
2022-10-03T07:46:35.405Z,99184.81
2022-10-03T07:49:20.463Z,99189.22
2022-10-03T07:52:06.011Z,99193.28
2022-10-03T07:54:42.615Z,99191.03
2022-10-03T07:57:28.262Z,99195.09
2022-10-03T07:59:58.700Z,99198.78
2022-10-03T08:02:29.411Z,99202.47
2022-10-03T08:05:11.615Z,99199.03
2022-10-03T08:07:46.875Z,99211.31
2022-10-03T08:10:40.725Z,99212.13
2022-10-03T08:13:49.232Z,99210.59
2022-10-03T08:16:42.696Z,99213.25
2022-10-03T08:19:19.215Z,99220.03
2022-10-03T08:22:05.051Z,99216.09
2022-10-03T08:24:38.182Z,99214.22
2022-10-03T08:27:12.235Z,99214.75
2022-10-03T08:29:42.570Z,99216.03
2022-10-03T08:32:34.891Z,99210.66
2022-10-03T08:35:20.748Z,99212.78
2022-10-03T08:38:07.183Z,99217.25
2022-10-03T08:41:12.648Z,99216.25
2022-10-03T08:44:11.241Z,99223.91
2022-10-03T08:47:01.612Z,99217.34
2022-10-03T08:49:35.835Z,99227.00
2022-10-03T08:52:39.752Z,99229.44
2022-10-03T08:55:26.447Z,99229.00
2022-10-03T08:58:00.027Z,99244.00
2022-10-03T09:00:33.261Z,99242.03
2022-10-03T09:06:12.332Z,99242.09
2022-10-03T09:08:49.329Z,99250.75
2022-10-03T09:11:36.193Z,99249.13
2022-10-03T09:14:32.565Z,99239.59
2022-10-03T09:17:06.533Z,99251.03
2022-10-03T09:19:52.396Z,99253.84
2022-10-03T09:22:34.848Z,99253.84
2022-10-03T09:25:09.037Z,99256.25
2022-10-03T09:28:08.923Z,99253.88
2022-10-03T09:30:48.814Z,99261.03
2022-10-03T09:33:43.723Z,99256.41
2022-10-03T09:36:29.928Z,99261.28
2022-10-03T09:38:57.373Z,99259.91
2022-10-03T09:41:52.463Z,99264.41
2022-10-03T09:44:44.415Z,99265.75
2022-10-03T09:47:34.014Z,99262.38
2022-10-03T09:50:27.381Z,99276.31
2022-10-03T09:53:06.973Z,99269.97
2022-10-03T09:56:02.829Z,99271.56
2022-10-03T09:58:52.476Z,99273.53
2022-10-03T10:01:43.550Z,99266.44
2022-10-03T10:04:50.299Z,99273.97
2022-10-03T10:08:03.332Z,99291.38
2022-10-03T10:10:51.181Z,99271.63
2022-10-03T10:14:07.240Z,99274.72
2022-10-03T10:16:52.179Z,99278.22
2022-10-03T10:19:32.261Z,99267.16
2022-10-03T10:22:42.212Z,99283.44
2022-10-03T10:25:43.509Z,99286.72
2022-10-03T10:28:48.659Z,99282.00
2022-10-03T10:31:34.838Z,99291.50
2022-10-03T10:34:32.374Z,99286.78
2022-10-03T10:37:06.006Z,99298.31
2022-10-03T10:39:40.085Z,99298.00
2022-10-03T10:42:37.892Z,99292.47
2022-10-03T10:45:24.539Z,99309.25
2022-10-03T10:48:18.841Z,99301.31
2022-10-03T10:51:14.005Z,99291.41
2022-10-03T10:54:12.511Z,99303.69
2022-10-03T10:57:08.037Z,99309.25
2022-10-03T10:59:53.746Z,99302.91
2022-10-03T11:02:46.064Z,99308.53
2022-10-03T11:05:32.822Z,99300.22
2022-10-03T11:08:41.174Z,99310.19
2022-10-03T11:11:41.952Z,99309.03
2022-10-03T11:14:47.514Z,99319.72
2022-10-03T11:17:38.300Z,99308.56
2022-10-03T11:20:24.227Z,99317.22
2022-10-03T11:23:16.351Z,99308.44
2022-10-03T11:26:06.012Z,99306.81
2022-10-03T11:28:58.545Z,99312.69
2022-10-03T11:32:09.729Z,99316.63
2022-10-03T11:35:02.108Z,99324.91
2022-10-03T11:37:45.022Z,99320.91
2022-10-03T11:40:37.604Z,99321.72
2022-10-03T11:43:38.797Z,99318.53
2022-10-03T11:46:45.018Z,99316.22
2022-10-03T11:49:41.127Z,99318.63
2022-10-03T11:52:28.025Z,99312.69
2022-10-03T11:55:06.115Z,99326.56
2022-10-03T11:57:40.258Z,99319.44
2022-10-03T12:00:10.545Z,99322.25
2022-10-03T12:02:44.644Z,99328.63
2022-10-03T12:05:15.698Z,99319.16
2022-10-03T12:08:19.051Z,99320.31
2022-10-03T12:11:03.562Z,99326.22
2022-10-03T12:13:42.497Z,99325.00
2022-10-03T12:16:27.776Z,99322.63
2022-10-03T12:18:57.135Z,99321.41
2022-10-03T12:21:28.399Z,99313.50
2022-10-03T12:24:15.203Z,99317.91
2022-10-03T12:27:26.521Z,99317.91
2022-10-03T12:29:58.971Z,99308.41
2022-10-03T12:32:49.741Z,99313.19
2022-10-03T12:35:17.889Z,99313.56
2022-10-03T12:37:57.272Z,99306.84
2022-10-03T12:40:28.426Z,99313.56
2022-10-03T12:43:28.325Z,99315.53
2022-10-03T12:46:00.484Z,99311.91
2022-10-03T12:48:52.473Z,99309.13
2022-10-03T12:51:24.679Z,99312.25
2022-10-03T12:54:08.523Z,99313.84
2022-10-03T12:56:43.213Z,99319.38
2022-10-03T12:59:35.901Z,99314.66
2022-10-03T13:02:12.543Z,99314.63
2022-10-03T13:04:52.721Z,99308.25
2022-10-03T13:07:28.473Z,99310.63
2022-10-03T13:10:09.784Z,99310.63
2022-10-03T13:12:46.185Z,99317.75
2022-10-03T13:15:19.792Z,99315.38
2022-10-03T13:18:33.887Z,99316.53
2022-10-03T13:21:33.502Z,99325.59
2022-10-03T13:24:02.983Z,99322.84
2022-10-03T13:26:42.612Z,99329.56
2022-10-03T13:29:23.727Z,99327.97
2022-10-03T13:32:17.504Z,99319.22
2022-10-03T13:35:48.690Z,99328.28
2022-10-03T13:38:58.260Z,99316.78
2022-10-03T13:41:40.031Z,99327.44
2022-10-03T13:44:35.590Z,99328.97
2022-10-03T13:47:16.874Z,99325.00
2022-10-03T13:49:53.977Z,99321.81
2022-10-03T13:52:38.780Z,99329.31
2022-10-03T13:55:06.211Z,99336.03
2022-10-03T13:57:39.887Z,99332.44
2022-10-03T14:00:16.917Z,99337.56
2022-10-03T14:03:09.192Z,99332.03
2022-10-03T14:06:16.084Z,99341.09
2022-10-03T14:09:01.839Z,99340.66
2022-10-03T14:11:44.428Z,99345.75
2022-10-03T14:14:21.594Z,99343.38
2022-10-03T14:17:00.835Z,99342.56
2022-10-03T14:19:52.171Z,99351.63
2022-10-03T14:22:59.967Z,99351.22
2022-10-03T14:25:47.107Z,99352.38
2022-10-03T14:28:26.867Z,99351.13
2022-10-03T14:31:17.699Z,99351.91
2022-10-03T14:34:03.356Z,99349.06
2022-10-03T14:36:52.401Z,99348.22
2022-10-03T14:39:40.928Z,99352.91
2022-10-03T14:42:47.468Z,99343.75
2022-10-03T14:45:17.946Z,99345.31
2022-10-03T14:47:51.643Z,99350.41
2022-10-03T14:50:26.572Z,99350.75
2022-10-03T14:53:02.437Z,99359.38
2022-10-03T14:55:38.462Z,99364.91
2022-10-03T14:58:13.107Z,99371.13
2022-10-03T15:00:45.396Z,99367.81
2022-10-03T15:03:24.892Z,99372.13
2022-10-03T15:06:11.345Z,99372.50
2022-10-03T15:08:47.844Z,99382.34
2022-10-03T15:11:16.555Z,99385.41
2022-10-03T15:13:47.658Z,99386.59
2022-10-03T15:16:16.744Z,99390.47
2022-10-03T15:18:50.222Z,99389.69
2022-10-03T15:21:17.883Z,99395.50
2022-10-03T15:23:45.971Z,99391.94
2022-10-03T15:26:21.385Z,99402.94
2022-10-03T15:28:50.755Z,99406.81
2022-10-03T15:31:30.404Z,99414.22
2022-10-03T15:33:58.056Z,99409.06
2022-10-03T15:36:27.164Z,99416.22
2022-10-03T15:38:57.865Z,99415.41
2022-10-03T15:41:54.941Z,99418.53
2022-10-03T15:44:41.768Z,99421.28
2022-10-03T15:47:11.512Z,99419.34
2022-10-03T15:49:40.743Z,99429.59
2022-10-03T15:52:20.231Z,99424.06
2022-10-03T15:54:54.722Z,99426.41
2022-10-03T15:57:32.913Z,99421.56
2022-10-03T16:00:03.610Z,99427.09
2022-10-03T16:02:43.375Z,99426.28
2022-10-03T16:05:19.707Z,99440.50
2022-10-03T16:07:56.844Z,99433.34
2022-10-03T16:10:32.730Z,99438.47
2022-10-03T16:13:06.501Z,99438.00
2022-10-03T16:15:52.770Z,99440.34
2022-10-03T16:18:42.031Z,99442.66
2022-10-03T16:21:12.974Z,99436.28
2022-10-03T16:23:42.436Z,99444.13
2022-10-03T16:26:30.865Z,99437.00
2022-10-03T16:29:13.052Z,99438.53
2022-10-03T16:31:45.363Z,99438.44
2022-10-03T16:34:15.744Z,99438.84
2022-10-03T16:36:50.445Z,99437.59
2022-10-03T16:39:21.494Z,99436.78
2022-10-03T16:41:50.530Z,99438.75
2022-10-03T16:44:26.699Z,99438.31
2022-10-03T16:46:55.676Z,99446.16
2022-10-03T16:49:45.454Z,99450.09
2022-10-03T16:52:15.807Z,99448.50
2022-10-03T16:54:45.750Z,99453.59
2022-10-03T16:57:32.869Z,99453.97
2022-10-03T17:00:08.309Z,99458.25
2022-10-03T17:02:36.565Z,99458.25
2022-10-03T17:05:12.434Z,99461.38
2022-10-03T17:07:42.844Z,99455.41
2022-10-03T17:10:35.460Z,99456.22
2022-10-03T17:13:38.027Z,99448.63
2022-10-03T17:16:13.445Z,99446.69
2022-10-03T17:18:44.692Z,99449.81
2022-10-03T17:21:19.318Z,99443.84
2022-10-03T17:23:53.514Z,99446.97
2022-10-03T17:26:29.587Z,99449.72
2022-10-03T17:29:29.649Z,99447.75
2022-10-03T17:32:01.218Z,99445.00
2022-10-03T17:34:39.998Z,99439.47
2022-10-03T17:37:39.977Z,99443.75
2022-10-03T17:40:23.575Z,99439.03
2022-10-03T17:43:01.359Z,99440.22
2022-10-03T17:45:33.701Z,99433.44
2022-10-03T17:48:21.950Z,99432.19
2022-10-03T17:51:09.443Z,99436.56
2022-10-03T17:53:37.827Z,99436.91
2022-10-03T17:56:15.548Z,99448.75
2022-10-03T17:58:50.171Z,99445.56
2022-10-03T18:01:39.587Z,99448.31
2022-10-03T18:04:16.621Z,99445.56
2022-10-03T18:07:02.925Z,99450.66
2022-10-03T18:09:33.255Z,99448.63
2022-10-03T18:12:17.092Z,99452.16
2022-10-03T18:15:14.766Z,99450.91
2022-10-03T18:17:54.697Z,99450.84
2022-10-03T18:20:48.917Z,99452.84
2022-10-03T18:23:49.997Z,99456.38
2022-10-03T18:26:21.111Z,99462.72
2022-10-03T18:29:07.470Z,99463.06
2022-10-03T18:31:36.310Z,99453.97
2022-10-03T18:34:14.144Z,99457.91
2022-10-03T18:36:47.730Z,99474.47
2022-10-03T18:39:25.500Z,99465.75
2022-10-03T18:41:55.643Z,99471.28
2022-10-03T18:44:23.837Z,99469.66
2022-10-03T18:46:56.726Z,99477.94
2022-10-03T18:49:33.953Z,99477.94
2022-10-03T18:52:50.280Z,99477.06
2022-10-03T18:55:51.251Z,99475.81
2022-10-03T18:58:26.003Z,99482.97
2022-10-03T19:00:59.168Z,99490.00
2022-10-03T19:03:36.696Z,99487.59
2022-10-03T19:06:20.794Z,99494.72
2022-10-03T19:08:59.998Z,99493.91
2022-10-03T19:11:34.984Z,99487.25
2022-10-03T19:14:33.295Z,99486.78
2022-10-03T19:17:56.512Z,99487.97
2022-10-03T19:20:28.623Z,99484.75
2022-10-03T19:22:59.208Z,99487.50
2022-10-03T19:25:27.333Z,99480.84
2022-10-03T19:28:00.816Z,99481.19
2022-10-03T19:30:29.529Z,99480.38
